Flight Track Log - Related Links

Times and Time Zones

All times are in EDT time to prevent confusion due to time zone crossing. See the EJA951 flight status page for this flight to view local times or setup timezone preferences in your user account.

Time Position Orientation Groundspeed Altitude Reporting Facility
EDT Latitude Longitude Course Direction KTS MPH feet Rate Location/Type
Wed 01:29:40 PM 42.3500 -71.0167 118° Southeast 208 239 800  Level KA90
Wed 01:30:59 PM 42.3167 -70.9333 118° Southeast 268 308 6,100 4,395 Climbing KA90
Wed 01:32:17 PM 42.3367 -70.8083 78° East 317 365 12,300 3,410 Climbing Boston Center
Wed 01:33:18 PM 42.3958 -70.7308 44° Northeast 296 341 14,000 1,322 Climbing Boston Center
Wed 01:34:15 PM 42.5003 -70.7419 356° North 296 341 14,900 1,385 Climbing Boston Center
Wed 01:35:15 PM 42.5725 -70.8444 314° West 301 346 16,700 1,537 Climbing Boston Center
Wed 01:36:16 PM 42.6283 -70.9558 304° West 348 400 18,000 1,131 Climbing Boston Center
Wed 01:37:17 PM 42.6967 -71.0983 303° West 404 465 19,000 1,140 Climbing Boston Center
Wed 01:38:17 PM 42.7672 -71.2381 305° West 431 496 20,300 1,678 Climbing Boston Center
Wed 01:39:15 PM 42.7978 -71.3903 285° West 431 496 22,300 1,916 Climbing Boston Center
Wed 01:40:16 PM 42.8097 -71.5514 276° West 431 496 24,100 1,785 Climbing Boston Center
Wed 01:41:16 PM 42.8253 -71.7153 277° West 431 496 25,900 1,686 Climbing Boston Center
Wed 01:42:17 PM 42.8408 -71.8850 277° West 446 513 27,500 1,587 Climbing Boston Center
Wed 01:43:17 PM 42.8561 -72.0606 277° West 458 527 29,100 1,576 Climbing Boston Center
Wed 01:44:15 PM 42.8733 -72.2389 278° West 471 542 30,600 2,017 Climbing Boston Center
Wed 01:45:16 PM 42.8922 -72.4203 278° West 478 550 33,100 2,557 Climbing Boston Center
Wed 01:46:17 PM 42.9108 -72.5903 279° West 477 549 35,800 2,672 Climbing Boston Center
Wed 01:47:15 PM 42.9147 -72.7433 272° West 471 542 38,400 2,136 Climbing Boston Center
Wed 01:48:15 PM 42.9289 -72.9081 277° West 452 520 40,000 1,339 Climbing Boston Center
Wed 01:49:16 PM 42.9508 -73.0925 279° West 445 512 41,100 1,041 Climbing Boston Center
Wed 01:50:16 PM 42.9622 -73.2628 275° West 445 512 42,100 942 Climbing Boston Center
Wed 01:51:17 PM 42.9694 -73.4161 274° West 454 522 43,000 450 Climbing Boston Center
Wed 01:52:16 PM 42.9822 -73.5922 276° West 461 531 43,000  Level Boston Center
Wed 01:53:16 PM 42.9969 -73.7714 276° West 473 544 43,000  Level Boston Center
Wed 01:54:17 PM 43.0114 -73.9536 276° West 483 556 43,000  Level Boston Center
Wed 01:55:17 PM 43.0275 -74.1386 277° West 483 556 43,000  Level Boston Center
Wed 01:56:15 PM 43.0414 -74.3236 276° West 488 562 43,000  Level Boston Center
Wed 01:57:15 PM 43.0528 -74.5086 275° West 488 562 43,000  Level Boston Center
Wed 01:58:16 PM 43.0658 -74.6939 276° West 493 567 43,000  Level Boston Center
Wed 01:59:16 PM 43.0783 -74.8961 275° West 493 567 43,000  Level Boston Center
Wed 02:00:17 PM 43.0867 -75.0842 274° West 493 567 43,000  Level Boston Center
Wed 02:01:17 PM 43.0969 -75.2694 274° West 493 567 43,000  Level Boston Center
Wed 02:02:15 PM 43.1067 -75.4547 274° West 498 573 43,000  Level Boston Center
Wed 02:03:16 PM 43.1183 -75.6375 275° West 498 573 43,000  Level Boston Center
Wed 02:04:16 PM 43.1275 -75.8258 274° West 498 573 43,000  Level Boston Center
Wed 02:05:17 PM 43.1367 -76.0028 274° West 493 567 43,000  Level Boston Center
Wed 02:06:59 PM 43.1483 -76.2992 273° West 488 562 43,000  Level Cleveland Center
Wed 02:08:01 PM 43.1567 -76.4833 274° West 486 559 43,000  Level Cleveland Center
Wed 02:09:03 PM 43.1653 -76.6981 273° West 486 559 43,000  Level Cleveland Center
Wed 02:10:05 PM 43.1725 -76.8817 273° West 486 559 43,000  Level Cleveland Center
Wed 02:11:07 PM 43.1800 -77.0656 273° West 486 559 43,000  Level Cleveland Center
Wed 02:12:09 PM 43.1864 -77.2481 273° West 485 558 43,000  Level Cleveland Center
Wed 02:13:11 PM 43.1939 -77.4678 273° West 486 559 43,000  Level Cleveland Center
Wed 02:14:13 PM 43.2003 -77.6503 273° West 485 558 43,000  Level Cleveland Center
Wed 02:15:15 PM 43.2064 -77.8322 273° West 483 556 43,000  Level Cleveland Center
Wed 02:16:17 PM 43.2125 -78.0153 273° West 484 557 43,000  Level Cleveland Center
Wed 02:17:19 PM 43.2169 -78.1972 272° West 483 556 43,000  Level Cleveland Center
Wed 02:18:22 PM 43.2328 -78.4158 276° West 483 556 43,000  Level Cleveland Center
Wed 02:19:24 PM 43.2464 -78.6003 276° West 491 565 43,000  Level Cleveland Center
Wed 02:20:26 PM 43.2608 -78.7797 276° West 478 550 43,000  Level Cleveland Center
Wed 02:21:14 PM 43.2667 -78.9167 273° West 480 552 43,000  Level Toronto Center
Wed 02:22:14 PM 43.2833 -79.1000 277° West 480 552 43,000  Level Toronto Center
Wed 02:23:14 PM 43.2833 -79.2833 270° West 480 552 43,000  Level Toronto Center
Wed 02:24:14 PM 43.3000 -79.4667 277° West 480 552 43,000  Level Toronto Center
Wed 02:25:14 PM 43.3167 -79.6500 277° West 490 564 43,000  Level Toronto Center
Wed 02:26:14 PM 43.3333 -79.8333 277° West 490 564 43,000  Level Toronto Center
Wed 02:27:14 PM 43.3333 -80.0167 270° West 490 564 43,000  Level Toronto Center
Wed 02:28:14 PM 43.3500 -80.2000 277° West 490 564 43,000  Level Toronto Center
Wed 02:29:14 PM 43.3667 -80.3833 277° West 490 564 43,000 -400 Level Toronto Center
Wed 02:30:14 PM 43.3833 -80.5667 277° West 490 564 42,200 -1,250 Descending Toronto Center
Wed 02:31:14 PM 43.3833 -80.7833 270° West 490 564 40,500 -1,550 Descending Toronto Center
Wed 02:32:14 PM 43.3833 -80.9667 270° West 500 575 39,100 -1,450 Descending Toronto Center
Wed 02:33:14 PM 43.4000 -81.1667 277° West 500 575 37,600 -1,400 Descending Toronto Center
Wed 02:34:14 PM 43.4167 -81.3500 277° West 500 575 36,300 -1,800 Descending Toronto Center
Wed 02:35:14 PM 43.4167 -81.5167 270° West 490 564 34,000 -2,300 Descending Toronto Center
Wed 02:36:14 PM 43.4333 -81.7167 277° West 500 575 31,700 -2,350 Descending Toronto Center
Wed 02:37:14 PM 43.4333 -81.9333 270° West 510 587 29,300 -2,450 Descending Toronto Center
Wed 02:38:14 PM 43.4500 -82.1167 277° West 510 587 26,800 -2,375 Descending Toronto Center
Wed 02:38:50 PM 43.4647 -82.2364 280° West 505 581 25,500 -1,959 Descending Cleveland Center
Wed 02:39:52 PM 43.4719 -82.4114 273° West 473 544 23,600 -2,016 Descending Cleveland Center
Wed 02:40:55 PM 43.4792 -82.5853 273° West 461 531 21,300 -2,160 Descending Cleveland Center
Wed 02:41:57 PM 43.4858 -82.7583 273° West 458 527 19,100 -2,032 Descending Cleveland Center
Wed 02:42:59 PM 43.4922 -82.9261 273° West 447 514 17,100 -2,226 Descending Cleveland Center
Wed 02:44:01 PM 43.4992 -83.1192 273° West 429 494 14,500 -2,129 Descending Cleveland Center
Wed 02:45:03 PM 43.5047 -83.2608 273° West 385 443 12,700 -1,790 Descending Cleveland Center
Wed 02:46:05 PM 43.5092 -83.4092 272° West 385 443 10,800 -1,548 Descending Cleveland Center
Wed 02:47:07 PM 43.5164 -83.5544 274° West 331 381 9,500 -1,403 Descending Cleveland Center
Wed 02:48:09 PM 43.5353 -83.6531 285° West 273 314 7,900 -1,694 Descending Cleveland Center
Wed 02:49:11 PM 43.5558 -83.7594 285° West 269 310 6,000 -1,839 Descending Cleveland Center
Wed 02:50:13 PM 43.5764 -83.8539 287° West 262 302 4,100 -1,065 Descending Cleveland Center
Wed 02:51:15 PM 43.5717 -83.9525 266° West 244 281 3,800 -871 Descending Cleveland Center
Wed 02:52:17 PM 43.5594 -84.0336 258° West 224 258 2,300 -912 Descending Cleveland Center
Wed 02:53:20 PM 43.5794 -84.0925 295° West 178 205 1,900 -381 Descending Cleveland Center
Wed 02:55:00 PM 43.5329 -84.0796 166° South  Level Estimated
Wed 03:02:00 PM 43.5329 -84.0796 166° South  Level Estimated

Login

Don't have an account? Register now (free) for customized features, flight alerts, and more!